Time;durP1;ratioP1;P1;durP2;ratioP2;P2;SDS_P1;SDS_P2;PMS_P1;PMS_P2;Temp;Humidity;BMP_temperature;BMP_pressure;BME280_temperature;BME280_humidity;BME280_pressure;Samples;Min_cycle;Max_cycle;Signal;HPM_P1;HPM_P2
2022/03/26 00:00:08;;;;;;;26.80;17.70;;;;;;;8.85;57.18;100554.66;5073053;28;20234;-59
2022/03/26 00:02:35;;;;;;;28.13;18.93;;;;;;;8.83;57.11;100552.06;5072940;28;20195;-59
2022/03/26 00:05:02;;;;;;;20.67;16.63;;;;;;;8.81;56.65;100556.25;5073104;28;20188;-58
2022/03/26 00:07:28;;;;;;;23.37;16.90;;;;;;;8.71;56.75;100543.88;5072750;28;20201;-59
2022/03/26 00:09:55;;;;;;;33.20;18.20;;;;;;;8.67;56.73;100547.13;5072921;28;20199;-59
2022/03/26 00:12:22;;;;;;;25.87;17.57;;;;;;;8.60;56.54;100544.25;5072675;28;20202;-59
2022/03/26 00:14:51;;;;;;;29.07;17.53;;;;;;;8.56;57.56;100544.94;5073109;28;20237;-59
2022/03/26 00:17:17;;;;;;;29.77;18.33;;;;;;;8.51;58.12;100546.44;5072548;28;20190;-59
2022/03/26 00:19:44;;;;;;;22.77;17.03;;;;;;;8.45;58.38;100544.50;5072890;28;20206;-59
2022/03/26 00:22:11;;;;;;;24.47;18.47;;;;;;;8.38;58.55;100554.44;5072727;28;20209;-59
2022/03/26 00:24:38;;;;;;;29.38;20.88;;;;;;;8.29;59.65;100550.66;5072134;28;20452;-58
2022/03/26 00:27:05;;;;;;;38.40;19.50;;;;;;;8.25;59.29;100555.56;5072973;28;20194;-59
2022/03/26 00:29:32;;;;;;;27.50;18.00;;;;;;;8.09;60.19;100543.81;5072513;28;20681;-58
2022/03/26 00:32:02;;;;;;;31.67;19.07;;;;;;;7.98;60.85;100544.16;5072838;28;20535;-58
2022/03/26 00:34:29;;;;;;;31.03;18.97;;;;;;;7.80;61.29;100558.72;5072442;28;20197;-58
2022/03/26 00:36:56;;;;;;;27.57;18.47;;;;;;;7.79;61.63;100554.38;5072343;28;20195;-58
2022/03/26 00:39:23;;;;;;;25.63;16.77;;;;;;;7.69;62.29;100559.09;5071057;28;20196;-58
2022/03/26 00:41:50;;;;;;;30.23;18.63;;;;;;;7.53;62.78;100555.78;5072167;28;20679;-58
2022/03/26 00:44:17;;;;;;;34.27;19.13;;;;;;;7.35;62.96;100553.28;5072150;28;20225;-59
2022/03/26 00:46:45;;;;;;;27.90;18.77;;;;;;;7.04;63.55;100519.44;5072079;28;20223;-59
2022/03/26 00:49:14;;;;;;;31.00;17.33;;;;;;;7.18;64.50;100558.41;5072193;28;20365;-59
2022/03/26 00:51:41;;;;;;;26.97;18.50;;;;;;;7.11;64.84;100564.94;5071900;28;20199;-59
2022/03/26 00:54:09;;;;;;;30.13;19.30;;;;;;;7.03;64.75;100563.69;5072167;28;20592;-59
2022/03/26 00:56:37;;;;;;;28.00;18.47;;;;;;;7.05;65.77;100569.75;5061734;28;20204;-59
2022/03/26 00:59:04;;;;;;;23.90;17.97;;;;;;;7.04;65.40;100565.44;5051652;28;20722;-59
2022/03/26 01:01:31;;;;;;;25.43;19.47;;;;;;;7.01;64.66;100570.38;5052365;28;20217;-59
2022/03/26 01:03:58;;;;;;;23.20;16.60;;;;;;;6.95;65.27;100573.53;5051671;28;20218;-59
2022/03/26 01:06:27;;;;;;;24.60;18.73;;;;;;;6.83;65.94;100562.75;5051819;28;20194;-59
2022/03/26 01:08:54;;;;;;;25.23;18.13;;;;;;;6.93;66.03;100574.25;5051830;28;20327;-59
2022/03/26 01:11:21;;;;;;;24.80;17.63;;;;;;;6.81;65.78;100561.78;5051876;28;20201;-59
2022/03/26 01:13:49;;;;;;;28.83;19.70;;;;;;;6.94;65.74;100578.56;5051792;28;20667;-59
2022/03/26 01:16:16;;;;;;;24.67;18.33;;;;;;;6.95;66.13;100580.34;5051875;28;20288;-59
2022/03/26 01:18:43;;;;;;;28.90;18.27;;;;;;;6.97;65.67;100576.19;5051712;28;20200;-59
2022/03/26 01:21:10;;;;;;;27.57;18.97;;;;;;;6.99;66.16;100582.22;5051887;28;20205;-60
2022/03/26 01:23:38;;;;;;;26.10;19.43;;;;;;;6.94;66.17;100586.25;5051967;28;20273;-59
2022/03/26 01:26:05;;;;;;;26.73;19.53;;;;;;;6.99;65.87;100585.66;5051507;28;20229;-59
2022/03/26 01:28:32;;;;;;;33.20;21.00;;;;;;;6.91;65.79;100566.53;5051590;28;20203;-59
2022/03/26 01:30:59;;;;;;;27.77;20.37;;;;;;;6.84;66.60;100584.06;5051528;28;20203;-59
2022/03/26 01:33:26;;;;;;;36.77;21.53;;;;;;;6.79;66.99;100588.03;5051731;28;20287;-59
2022/03/26 01:35:53;;;;;;;32.83;20.30;;;;;;;6.76;66.67;100583.66;5051346;28;20575;-59
2022/03/26 01:38:21;;;;;;;32.07;22.00;;;;;;;6.76;66.91;100582.78;5051391;28;20258;-59
2022/03/26 01:40:49;;;;;;;32.53;21.93;;;;;;;6.75;67.07;100591.28;5051376;28;20188;-62
2022/03/26 01:43:16;;;;;;;29.23;21.63;;;;;;;6.70;66.45;100585.94;5051102;28;20192;-59
2022/03/26 01:45:43;;;;;;;28.53;20.67;;;;;;;6.78;67.38;100588.88;5051358;28;20212;-58
2022/03/26 01:48:10;;;;;;;30.93;22.30;;;;;;;6.72;67.46;100586.88;5050992;28;20194;-58
2022/03/26 01:50:38;;;;;;;29.73;21.47;;;;;;;6.76;66.32;100595.56;5050763;28;20752;-58
2022/03/26 01:53:06;;;;;;;29.17;21.90;;;;;;;6.72;67.31;100591.13;5051140;28;20194;-58
2022/03/26 01:55:33;;;;;;;28.70;21.17;;;;;;;6.71;66.83;100592.78;5051387;28;20200;-58
2022/03/26 01:58:01;;;;;;;29.63;20.23;;;;;;;6.57;67.12;100569.91;5050898;28;20688;-58
2022/03/26 02:00:28;;;;;;;27.83;20.73;;;;;;;6.66;66.78;100593.38;5050806;28;20229;-58
2022/03/26 02:02:56;;;;;;;34.13;23.05;;;;;;;6.72;67.15;100591.13;5050602;28;20446;-58
2022/03/26 02:05:23;;;;;;;33.40;22.50;;;;;;;6.72;66.82;100592.00;5050773;28;20224;-59
2022/03/26 02:07:51;;;;;;;29.17;22.13;;;;;;;6.68;67.35;100600.28;5050766;28;20575;-59
2022/03/26 02:10:20;;;;;;;32.13;22.43;;;;;;;6.72;67.58;100597.09;5055974;28;20194;-59
2022/03/26 02:12:47;;;;;;;36.53;19.37;;;;;;;6.75;66.73;100606.59;5079933;28;20649;-59
2022/03/26 02:15:17;;;;;;;30.83;20.27;;;;;;;6.73;66.56;100606.50;5080746;28;20578;-59
2022/03/26 02:17:45;;;;;;;31.10;21.60;;;;;;;6.81;66.53;100612.00;5070254;28;20689;-59
2022/03/26 02:20:15;;;;;;;32.80;22.33;;;;;;;6.85;66.73;100612.22;5070589;28;20660;-59
2022/03/26 02:22:42;;;;;;;29.83;21.27;;;;;;;6.90;66.44;100614.97;5070790;28;20203;-59
2022/03/26 02:25:10;;;;;;;34.17;21.63;;;;;;;6.95;66.22;100611.00;5070535;28;20228;-59
2022/03/26 02:27:38;;;;;;;31.50;20.20;;;;;;;7.01;66.17;100608.72;5070736;28;20194;-59
2022/03/26 02:30:06;;;;;;;30.93;22.23;;;;;;;7.05;65.55;100613.19;5070512;28;20605;-59
2022/03/26 02:32:33;;;;;;;28.40;20.83;;;;;;;7.05;65.88;100618.28;5070258;28;20202;-59
2022/03/26 02:35:00;;;;;;;30.93;22.17;;;;;;;7.04;65.66;100608.88;5070716;28;20192;-59
2022/03/26 02:37:28;;;;;;;38.07;22.73;;;;;;;6.96;65.74;100603.41;5070282;28;20196;-59
2022/03/26 02:39:55;;;;;;;30.53;21.37;;;;;;;7.03;66.28;100614.81;5070896;28;20192;-59
2022/03/26 02:42:22;;;;;;;28.03;21.47;;;;;;;7.02;65.82;100613.03;5070427;28;20935;-59
2022/03/26 02:44:50;;;;;;;30.70;21.20;;;;;;;7.04;65.51;100622.53;5070425;28;20221;-58
2022/03/26 02:47:17;;;;;;;31.92;23.77;;;;;;;6.85;65.65;100589.22;5070162;28;20437;-59
2022/03/26 02:49:43;;;;;;;29.30;20.73;;;;;;;7.13;66.20;100628.09;5070443;28;20981;-59
2022/03/26 02:52:10;;;;;;;32.67;21.57;;;;;;;7.12;66.17;100633.97;5070286;28;20202;-59
2022/03/26 02:54:38;;;;;;;29.87;21.83;;;;;;;7.16;65.15;100632.47;5070508;28;20190;-59
2022/03/26 02:57:06;;;;;;;33.37;21.63;;;;;;;7.15;64.66;100635.81;5070299;28;20196;-59
2022/03/26 02:59:33;;;;;;;29.57;20.20;;;;;;;7.18;65.70;100630.84;5070032;28;20252;-59
2022/03/26 03:02:00;;;;;;;33.50;22.33;;;;;;;7.13;64.95;100633.19;5071709;28;20629;-59
2022/03/26 03:04:28;;;;;;;33.10;22.37;;;;;;;7.10;65.03;100634.72;5074335;28;20223;-59
2022/03/26 03:06:54;;;;;;;33.97;21.47;;;;;;;7.02;65.48;100619.03;5074203;28;20662;-59
2022/03/26 03:09:21;;;;;;;31.80;21.67;;;;;;;7.04;65.83;100636.97;5074015;28;20196;-59
2022/03/26 03:11:50;;;;;;;27.17;21.90;;;;;;;6.94;65.71;100632.22;5074070;28;20208;-59
2022/03/26 03:14:17;;;;;;;32.60;21.83;;;;;;;6.85;65.72;100635.22;5073946;28;20189;-59
2022/03/26 03:16:45;;;;;;;41.03;24.33;;;;;;;6.80;66.04;100630.66;5073773;28;20570;-59
2022/03/26 03:19:12;;;;;;;32.87;21.97;;;;;;;6.76;66.55;100637.31;5079344;28;20669;-59
2022/03/26 03:21:39;;;;;;;31.93;23.17;;;;;;;6.66;66.63;100627.44;5074114;28;20195;-58
2022/03/26 03:24:07;;;;;;;45.20;22.80;;;;;;;6.60;67.05;100627.13;5074065;28;20220;-58
2022/03/26 03:26:33;;;;;;;33.13;22.63;;;;;;;6.64;67.07;100626.50;5073660;28;20192;-59
2022/03/26 03:29:02;;;;;;;36.80;22.00;;;;;;;6.69;67.01;100625.03;5073837;28;20194;-58
2022/03/26 03:31:29;;;;;;;36.22;25.10;;;;;;;6.71;67.13;100630.22;5073506;28;20448;-58
2022/03/26 03:33:56;;;;;;;33.40;23.47;;;;;;;6.76;66.50;100616.88;5073421;28;20652;-58
2022/03/26 03:36:23;;;;;;;32.10;23.37;;;;;;;6.75;65.79;100616.81;5073484;28;20245;-58
2022/03/26 03:38:49;;;;;;;35.80;22.30;;;;;;;6.75;66.73;100622.78;5073504;28;20201;-58
2022/03/26 03:41:17;;;;;;;33.57;22.53;;;;;;;6.77;66.03;100626.28;5073458;28;20216;-58
2022/03/26 03:43:44;;;;;;;35.87;23.10;;;;;;;6.72;66.80;100632.84;5073456;28;20270;-58
2022/03/26 03:46:12;;;;;;;32.30;21.90;;;;;;;6.67;66.81;100623.22;5073697;28;20189;-58
2022/03/26 03:48:39;;;;;;;33.87;22.63;;;;;;;6.69;66.41;100634.38;5073593;28;20246;-59
2022/03/26 03:51:07;;;;;;;29.37;21.90;;;;;;;6.71;66.60;100635.31;5073205;28;20200;-58
2022/03/26 03:53:34;;;;;;;29.07;21.70;;;;;;;6.69;65.82;100630.16;5073367;28;20201;-58
2022/03/26 03:56:01;;;;;;;28.37;20.67;;;;;;;6.77;65.46;100633.06;5073062;28;20196;-58
2022/03/26 03:58:28;;;;;;;30.17;22.33;;;;;;;6.79;66.20;100629.78;5072552;28;20205;-59
2022/03/26 04:00:55;;;;;;;29.43;21.57;;;;;;;6.84;65.72;100637.69;5079648;28;20695;-59
2022/03/26 04:03:23;;;;;;;29.90;19.97;;;;;;;6.89;65.44;100632.03;5083202;28;20222;-59
2022/03/26 04:05:50;;;;;;;31.60;22.20;;;;;;;6.91;65.56;100640.63;5080531;28;20217;-59
2022/03/26 04:08:17;;;;;;;32.57;21.77;;;;;;;6.83;64.68;100634.25;5082264;28;20211;-59
2022/03/26 04:10:44;;;;;;;34.10;21.90;;;;;;;6.89;65.16;100649.91;5081806;28;20224;-59
2022/03/26 04:13:11;;;;;;;34.03;22.87;;;;;;;6.87;65.58;100650.59;5076907;28;20216;-58
2022/03/26 04:15:37;;;;;;;33.43;22.47;;;;;;;6.83;65.95;100648.72;5072954;28;20226;-58
2022/03/26 04:18:05;;;;;;;39.13;24.27;;;;;;;6.81;65.69;100646.06;5072622;28;20216;-58
2022/03/26 04:20:33;;;;;;;34.73;25.33;;;;;;;6.74;66.65;100651.69;5072609;28;20200;-59
2022/03/26 04:23:00;;;;;;;45.50;27.43;;;;;;;6.66;66.43;100647.00;5072731;28;20267;-58
2022/03/26 04:25:28;;;;;;;47.43;26.57;;;;;;;6.39;67.34;100646.47;5072412;28;20700;-59
2022/03/26 04:27:55;;;;;;;34.00;25.27;;;;;;;6.51;66.55;100655.63;5072645;28;20196;-59
2022/03/26 04:30:21;;;;;;;38.07;25.20;;;;;;;6.51;67.92;100653.06;5072699;28;20192;-58
2022/03/26 04:32:48;;;;;;;39.87;24.13;;;;;;;6.53;66.00;100654.06;5072483;28;20291;-58
2022/03/26 04:35:15;;;;;;;36.67;23.87;;;;;;;6.51;66.54;100647.09;5072335;28;20198;-59
2022/03/26 04:37:44;;;;;;;44.93;28.87;;;;;;;6.40;67.08;100656.75;5072346;28;20200;-58
2022/03/26 04:40:12;;;;;;;47.23;30.77;;;;;;;6.40;67.46;100666.13;5072802;28;20203;-59
2022/03/26 04:42:39;;;;;;;41.97;28.03;;;;;;;6.32;67.51;100663.13;5072637;28;20195;-58
2022/03/26 04:45:07;;;;;;;39.10;25.70;;;;;;;6.04;68.43;100672.72;5072154;28;20709;-58
2022/03/26 04:47:34;;;;;;;33.93;24.07;;;;;;;5.83;69.86;100676.63;5072196;28;20197;-59
2022/03/26 04:50:01;;;;;;;39.97;24.43;;;;;;;5.75;69.95;100681.34;5072042;28;20195;-58
2022/03/26 04:52:28;;;;;;;38.40;26.13;;;;;;;5.71;69.93;100694.69;5072046;28;20207;-58
2022/03/26 04:54:56;;;;;;;40.47;26.07;;;;;;;5.73;69.69;100689.69;5072325;28;20192;-58
2022/03/26 04:57:23;;;;;;;41.70;26.73;;;;;;;5.64;69.50;100700.25;5072248;28;20203;-58
2022/03/26 04:59:50;;;;;;;44.53;28.00;;;;;;;5.59;69.42;100704.25;5071728;28;20446;-58
2022/03/26 05:02:16;;;;;;;57.07;27.53;;;;;;;5.43;69.95;100705.84;5071723;28;20204;-59
2022/03/26 05:04:43;;;;;;;41.27;27.87;;;;;;;5.37;70.13;100706.38;5069406;28;20290;-59
2022/03/26 05:09:56;;;;;;;45.57;30.30;;;;;;;5.48;70.19;100712.97;5071692;28;20198;-59
2022/03/26 05:12:23;;;;;;;46.90;29.90;;;;;;;5.47;69.77;100707.75;5071476;28;20207;-59
2022/03/26 05:14:50;;;;;;;47.87;30.33;;;;;;;5.56;69.36;100715.94;5071359;28;20191;-59
2022/03/26 05:17:17;;;;;;;41.80;28.80;;;;;;;5.62;69.91;100713.72;5071418;28;20207;-59
2022/03/26 05:19:44;;;;;;;45.57;29.13;;;;;;;5.70;69.43;100715.03;5071682;28;20196;-59
2022/03/26 05:22:11;;;;;;;42.17;27.63;;;;;;;5.76;69.54;100728.13;5071673;28;20199;-59
2022/03/26 05:24:37;;;;;;;42.37;25.63;;;;;;;5.80;69.17;100718.16;5069669;28;20212;-58
2022/03/26 05:27:06;;;;;;;37.23;25.53;;;;;;;5.91;68.73;100718.75;5071335;28;20191;-59
2022/03/26 05:29:33;;;;;;;49.83;30.77;;;;;;;5.97;68.46;100730.97;5071059;28;20666;-59
2022/03/26 05:32:01;;;;;;;39.37;28.70;;;;;;;5.94;68.38;100726.59;5071599;28;20205;-59
2022/03/26 05:34:28;;;;;;;49.47;30.73;;;;;;;6.03;67.97;100727.09;5071186;28;20237;-59
2022/03/26 05:36:55;;;;;;;54.97;32.93;;;;;;;6.08;67.86;100729.88;5071129;28;20193;-59
2022/03/26 05:39:22;;;;;;;43.77;32.77;;;;;;;6.12;68.05;100731.81;5077874;28;20192;-59
2022/03/26 05:41:49;;;;;;;44.97;32.60;;;;;;;6.04;68.21;100733.97;5081046;28;20198;-58
2022/03/26 05:44:17;;;;;;;43.17;30.77;;;;;;;6.04;69.09;100727.97;5081366;28;20191;-59
2022/03/26 05:46:44;;;;;;;44.50;31.13;;;;;;;6.15;68.38;100737.97;5073345;28;20224;-59
2022/03/26 05:49:11;;;;;;;44.07;29.23;;;;;;;6.23;67.40;100735.81;5077096;28;20685;-59
2022/03/26 05:51:37;;;;;;;39.40;29.57;;;;;;;6.49;67.32;100740.59;5078780;28;20204;-59
2022/03/26 05:54:04;;;;;;;42.87;29.17;;;;;;;6.67;66.90;100733.03;5077031;28;20198;-59
2022/03/26 05:56:36;;;;;;;40.63;27.50;;;;;;;6.83;66.92;100733.00;5080217;28;20184;-59
2022/03/26 05:59:03;;;;;;;38.23;25.00;;;;;;;6.90;66.34;100746.16;5071099;28;20244;-58
2022/03/26 06:01:32;;;;;;;39.97;26.77;;;;;;;6.88;65.35;100744.31;5050767;28;20205;-60
2022/03/26 06:03:59;;;;;;;42.00;28.13;;;;;;;6.54;65.01;100681.31;5050995;28;20197;-59
2022/03/26 06:06:26;;;;;;;40.07;27.80;;;;;;;6.96;64.81;100746.47;5050600;28;20217;-59
2022/03/26 06:08:53;;;;;;;37.60;27.93;;;;;;;7.07;64.76;100745.31;5050911;28;20223;-59
2022/03/26 06:11:20;;;;;;;36.40;26.77;;;;;;;7.05;65.04;100740.94;5050659;28;20199;-59
2022/03/26 06:13:46;;;;;;;44.70;28.47;;;;;;;7.02;64.92;100749.34;5050651;28;20190;-60
2022/03/26 06:16:14;;;;;;;42.77;28.70;;;;;;;6.96;64.73;100746.47;5050524;28;20196;-60
2022/03/26 06:18:42;;;;;;;46.20;30.53;;;;;;;7.10;64.74;100749.72;5061182;28;20762;-59
2022/03/26 06:21:09;;;;;;;43.30;29.77;;;;;;;7.04;64.84;100754.50;5070253;28;20250;-60
2022/03/26 06:23:36;;;;;;;41.77;27.70;;;;;;;7.04;64.88;100757.06;5069906;28;20682;-59
2022/03/26 06:26:03;;;;;;;51.63;31.73;;;;;;;7.16;64.78;100764.47;5069913;28;20220;-59
2022/03/26 06:28:30;;;;;;;57.20;34.97;;;;;;;7.10;64.62;100759.94;5070076;28;20198;-59
2022/03/26 06:30:57;;;;;;;58.70;34.63;;;;;;;7.13;64.42;100760.09;5069923;28;20197;-59
2022/03/26 06:33:24;;;;;;;51.77;37.63;;;;;;;7.05;65.30;100762.28;5070159;28;20201;-59
2022/03/26 06:35:52;;;;;;;51.80;35.70;;;;;;;7.24;63.99;100766.63;5070138;28;20204;-59
2022/03/26 06:38:19;;;;;;;56.03;34.23;;;;;;;7.40;64.62;100764.00;5069613;28;20196;-59
2022/03/26 06:40:46;;;;;;;48.53;33.77;;;;;;;7.41;63.92;100760.66;5070080;28;20668;-60
2022/03/26 06:43:13;;;;;;;56.77;33.40;;;;;;;7.45;63.77;100766.78;5070014;28;20202;-59
2022/03/26 06:45:40;;;;;;;57.37;35.53;;;;;;;7.54;63.66;100764.69;5068667;28;20227;-59
2022/03/26 06:48:08;;;;;;;55.83;36.03;;;;;;;7.65;63.67;100769.50;5079643;28;20202;-59
2022/03/26 06:50:35;;;;;;;61.97;39.00;;;;;;;7.35;63.52;100718.56;5077873;28;20789;-58
2022/03/26 06:53:03;;;;;;;56.50;36.77;;;;;;;7.88;62.58;100767.16;5073745;28;20205;-59
2022/03/26 06:55:30;;;;;;;52.07;38.30;;;;;;;8.00;61.76;100767.72;5070029;28;20194;-58
2022/03/26 06:57:56;;;;;;;55.40;37.80;;;;;;;8.12;62.17;100765.75;5069545;28;20405;-58
2022/03/26 07:00:23;;;;;;;48.40;36.30;;;;;;;8.26;60.84;100769.81;5069694;28;20236;-58
2022/03/26 07:02:50;;;;;;;54.57;37.90;;;;;;;8.30;60.86;100777.75;5069632;28;20197;-59
2022/03/26 07:05:17;;;;;;;52.10;37.53;;;;;;;8.40;61.04;100775.59;5068180;28;20609;-59
2022/03/26 07:07:44;;;;;;;56.43;33.73;;;;;;;8.41;59.70;100761.97;5053295;28;20212;-58
2022/03/26 07:10:13;;;;;;;49.17;32.23;;;;;;;8.64;59.30;100782.69;5053347;28;20253;-58
2022/03/26 07:12:39;;;;;;;48.53;33.30;;;;;;;8.81;58.60;100780.88;5049575;28;20629;-58
2022/03/26 07:15:08;;;;;;;45.53;28.73;;;;;;;8.87;58.29;100782.00;5049546;28;20666;-58
2022/03/26 07:17:35;;;;;;;40.40;29.37;;;;;;;8.82;59.18;100783.50;5070974;28;20679;-59
2022/03/26 07:20:02;;;;;;;42.67;27.70;;;;;;;8.89;58.31;100784.66;5078734;28;20201;-59
2022/03/26 07:22:28;;;;;;;36.47;25.03;;;;;;;8.90;58.36;100783.81;5079535;28;20202;-58
2022/03/26 07:24:55;;;;;;;33.57;25.30;;;;;;;8.93;58.85;100783.97;5079736;28;20184;-59
2022/03/26 07:27:24;;;;;;;35.27;25.43;;;;;;;9.05;58.34;100778.47;5066894;28;20195;-58
2022/03/26 07:29:50;;;;;;;37.23;25.47;;;;;;;9.07;58.29;100780.31;5078687;28;20616;-58
2022/03/26 07:32:17;;;;;;;33.40;25.47;;;;;;;9.17;58.08;100781.59;5079940;28;20195;-58
2022/03/26 07:34:44;;;;;;;41.73;26.90;;;;;;;9.20;58.09;100784.28;5071327;28;20195;-59
2022/03/26 07:37:11;;;;;;;39.07;26.07;;;;;;;9.30;58.26;100788.97;5069380;28;20205;-59
2022/03/26 07:39:38;;;;;;;37.10;25.53;;;;;;;9.48;57.34;100784.59;5069611;28;20194;-59
2022/03/26 07:42:05;;;;;;;38.10;29.25;;;;;;;9.52;57.58;100788.16;5068457;28;20438;-59
2022/03/26 07:44:33;;;;;;;34.93;25.13;;;;;;;9.70;56.56;100786.34;5069210;28;20207;-58
2022/03/26 07:47:00;;;;;;;32.87;24.70;;;;;;;9.70;56.78;100789.78;5068852;28;20225;-59
2022/03/26 07:49:27;;;;;;;28.20;23.27;;;;;;;9.85;56.32;100785.28;5072338;28;20206;-59
2022/03/26 07:51:54;;;;;;;40.17;24.80;;;;;;;10.04;55.95;100784.28;5073356;28;20205;-59
2022/03/26 07:54:20;;;;;;;34.20;24.67;;;;;;;10.11;55.57;100781.13;5075945;28;20195;-59
2022/03/26 07:56:48;;;;;;;33.67;23.97;;;;;;;10.18;55.13;100777.16;5075033;28;20199;-59
2022/03/26 07:59:14;;;;;;;37.33;25.47;;;;;;;10.33;54.94;100777.75;5072799;28;20598;-58
2022/03/26 08:01:43;;;;;;;34.67;24.40;;;;;;;10.40;54.89;100777.16;5072685;28;20198;-58
2022/03/26 08:04:09;;;;;;;34.90;24.20;;;;;;;10.46;54.25;100782.53;5072532;28;20195;-59
2022/03/26 08:06:36;;;;;;;33.10;24.20;;;;;;;10.61;53.79;100775.34;5072475;28;20219;-59
2022/03/26 08:09:05;;;;;;;33.00;24.17;;;;;;;10.64;53.70;100778.03;5072315;28;20191;-59
2022/03/26 08:11:32;;;;;;;31.77;23.87;;;;;;;10.81;53.44;100764.13;5072535;28;20191;-58
2022/03/26 08:13:59;;;;;;;30.50;23.40;;;;;;;10.96;52.54;100764.63;5072179;28;20198;-58
2022/03/26 08:16:26;;;;;;;31.07;22.60;;;;;;;11.07;52.05;100762.47;5072651;28;20184;-59
2022/03/26 08:18:54;;;;;;;27.47;22.80;;;;;;;11.00;51.64;100761.34;5072424;28;20658;-58
2022/03/26 08:21:21;;;;;;;29.00;22.30;;;;;;;11.04;51.44;100758.06;5072522;28;20227;-60
2022/03/26 08:23:48;;;;;;;26.47;20.97;;;;;;;11.07;51.21;100758.16;5072222;28;20191;-61
2022/03/26 08:26:22;;;;;;;33.57;21.60;;;;;;;11.29;50.79;100752.03;5072188;28;20674;-60
2022/03/26 08:28:50;;;;;;;30.27;22.60;;;;;;;11.49;50.10;100765.56;5071912;28;20608;-60
2022/03/26 08:31:17;;;;;;;35.73;23.50;;;;;;;11.61;50.07;100753.09;5072553;28;20195;-60
2022/03/26 08:33:44;;;;;;;31.17;24.30;;;;;;;11.66;49.95;100752.44;5072132;28;20566;-60
2022/03/26 08:36:14;;;;;;;27.00;21.63;;;;;;;11.80;48.77;100745.19;5071839;28;20260;-60
2022/03/26 08:38:41;;;;;;;30.57;22.13;;;;;;;11.85;48.79;100738.47;5070839;28;20192;-59
2022/03/26 08:41:08;;;;;;;30.77;23.37;;;;;;;11.75;48.89;100732.16;5071222;28;20199;-59
2022/03/26 08:43:35;;;;;;;30.40;22.53;;;;;;;11.79;48.47;100738.25;5072064;28;20195;-60
2022/03/26 08:46:02;;;;;;;25.30;20.97;;;;;;;11.77;48.21;100729.63;5070158;28;20242;-59
2022/03/26 08:48:29;;;;;;;31.83;22.70;;;;;;;11.71;48.88;100729.44;5069661;28;20218;-59
2022/03/26 08:50:55;;;;;;;29.60;22.07;;;;;;;11.83;48.60;100733.28;5068620;28;20200;-59
2022/03/26 08:53:24;;;;;;;28.90;22.60;;;;;;;11.79;48.99;100727.97;5068731;28;20246;-60
2022/03/26 08:55:52;;;;;;;31.10;21.53;;;;;;;11.81;48.63;100726.34;5068115;28;20658;-59
2022/03/26 08:58:19;;;;;;;33.13;23.53;;;;;;;11.65;48.96;100724.03;5068406;28;20215;-60
2022/03/26 09:00:48;;;;;;;32.27;22.50;;;;;;;11.79;48.83;100720.25;5068031;28;20279;-60
2022/03/26 09:03:17;;;;;;;32.57;21.93;;;;;;;11.77;48.31;100716.75;5070283;28;20213;-59
2022/03/26 09:05:44;;;;;;;29.80;22.03;;;;;;;11.87;47.82;100716.19;5071292;28;20206;-60
2022/03/26 09:08:11;;;;;;;26.67;21.17;;;;;;;11.84;47.40;100711.81;5071162;28;20198;-59
2022/03/26 09:10:39;;;;;;;28.27;22.27;;;;;;;12.02;47.13;100710.66;5070988;28;20214;-61
2022/03/26 09:13:06;;;;;;;32.50;22.43;;;;;;;12.09;47.40;100707.41;5070981;28;20203;-59
2022/03/26 09:15:33;;;;;;;26.77;21.17;;;;;;;12.26;46.55;100707.06;5070867;28;20673;-58
2022/03/26 09:18:00;;;;;;;35.90;21.60;;;;;;;12.38;46.30;100710.03;5070734;28;20188;-60
2022/03/26 09:20:28;;;;;;;26.73;20.87;;;;;;;12.36;45.56;100693.63;5070944;28;20260;-59
2022/03/26 09:22:55;;;;;;;29.63;21.53;;;;;;;12.26;46.17;100701.94;5070682;28;20677;-59
2022/03/26 09:25:22;;;;;;;35.20;21.90;;;;;;;12.35;46.09;100691.00;5070622;28;20203;-59
2022/03/26 09:27:51;;;;;;;32.90;22.30;;;;;;;12.34;45.35;100690.13;5070708;28;20819;-59
2022/03/26 09:30:21;;;;;;;28.47;21.50;;;;;;;12.48;44.54;100687.06;5070848;28;20188;-59
2022/03/26 09:32:47;;;;;;;27.97;19.50;;;;;;;12.63;44.26;100678.06;5071055;28;20375;-58
2022/03/26 09:35:15;;;;;;;35.93;21.10;;;;;;;12.79;43.67;100680.19;5070516;28;20203;-58
2022/03/26 09:37:43;;;;;;;31.30;21.43;;;;;;;12.98;42.79;100677.25;5070350;28;20230;-60
2022/03/26 09:40:12;;;;;;;31.87;19.97;;;;;;;13.12;42.64;100672.47;5070292;28;20195;-59
2022/03/26 09:42:40;;;;;;;26.80;20.73;;;;;;;13.36;42.34;100665.31;5070510;28;20257;-60
2022/03/26 09:45:10;;;;;;;26.60;20.07;;;;;;;13.41;41.19;100666.28;5069866;28;20195;-60
2022/03/26 09:47:38;;;;;;;33.07;21.07;;;;;;;13.44;40.64;100662.91;5070698;28;20218;-59
2022/03/26 09:50:06;;;;;;;32.63;21.67;;;;;;;13.33;40.20;100631.69;5070233;28;20611;-60
2022/03/26 09:52:34;;;;;;;27.83;19.10;;;;;;;13.54;39.02;100650.25;5070186;28;20562;-60
2022/03/26 09:55:01;;;;;;;28.23;19.90;;;;;;;13.65;39.26;100645.34;5069848;28;20189;-59
2022/03/26 09:57:28;;;;;;;24.93;19.00;;;;;;;13.81;37.41;100644.84;5070049;28;20195;-59
2022/03/26 09:59:55;;;;;;;25.60;19.10;;;;;;;13.92;36.36;100639.91;5069986;28;20227;-59
2022/03/26 10:02:23;;;;;;;21.73;18.13;;;;;;;13.88;36.46;100635.47;5069753;28;20191;-59
2022/03/26 10:04:50;;;;;;;26.60;17.70;;;;;;;13.89;35.04;100637.25;5069815;28;20192;-60
2022/03/26 10:07:17;;;;;;;22.80;17.10;;;;;;;13.83;33.98;100616.44;5069726;28;20728;-60
2022/03/26 10:09:45;;;;;;;25.17;18.13;;;;;;;13.89;35.24;100632.06;5069779;28;20211;-59
2022/03/26 10:12:16;;;;;;;30.73;19.30;;;;;;;13.92;34.54;100625.28;5069487;28;20257;-60
2022/03/26 10:14:45;;;;;;;25.17;18.77;;;;;;;13.98;34.99;100622.78;5069317;28;20530;-60
2022/03/26 10:17:15;;;;;;;27.50;18.93;;;;;;;14.02;34.25;100618.56;5069416;28;20654;-60
2022/03/26 10:19:49;;;;;;;26.10;18.20;;;;;;;14.10;33.68;100617.00;5069332;28;20212;-60
2022/03/26 10:22:31;;;;;;;22.03;16.73;;;;;;;14.13;33.37;100617.94;5069861;28;20654;-60
2022/03/26 10:25:01;;;;;;;22.63;16.73;;;;;;;14.22;33.30;100606.91;5069221;28;20204;-59
2022/03/26 10:27:28;;;;;;;22.03;16.47;;;;;;;14.34;32.17;100611.50;5069487;28;20727;-60
2022/03/26 10:29:56;;;;;;;24.57;16.67;;;;;;;14.44;31.85;100608.22;5069535;28;20188;-59
2022/03/26 10:32:39;;;;;;;21.23;16.13;;;;;;;14.55;32.05;100604.13;5069256;28;20192;-60
2022/03/26 10:35:17;;;;;;;22.23;17.23;;;;;;;14.73;31.19;100594.94;5068834;28;20440;-60
2022/03/26 10:37:45;;;;;;;25.33;16.97;;;;;;;14.89;31.37;100592.63;5069656;28;20195;-60
2022/03/26 10:40:25;;;;;;;20.03;15.37;;;;;;;14.66;30.15;100545.69;5069436;28;20192;-60
2022/03/26 10:42:59;;;;;;;19.63;15.00;;;;;;;14.98;29.34;100585.00;5069662;28;20191;-60
2022/03/26 10:45:28;;;;;;;19.90;14.40;;;;;;;15.12;27.99;100580.91;5062855;28;20188;-60
2022/03/26 10:47:56;;;;;;;22.70;15.43;;;;;;;15.22;28.47;100568.13;5069464;28;20220;-60
2022/03/26 10:50:25;;;;;;;20.23;14.40;;;;;;;15.27;28.29;100574.22;5054498;28;20200;-60
2022/03/26 10:52:55;;;;;;;20.23;14.37;;;;;;;15.29;28.04;100564.78;5052073;28;20193;-59
2022/03/26 10:55:23;;;;;;;22.37;14.07;;;;;;;15.30;27.25;100548.38;5076023;28;20193;-58
2022/03/26 10:57:50;;;;;;;18.20;13.80;;;;;;;15.59;27.00;100561.78;5073575;28;20277;-58
2022/03/26 11:00:18;;;;;;;17.07;14.47;;;;;;;15.66;26.96;100570.47;5075071;28;20222;-59
2022/03/26 11:02:46;;;;;;;18.07;13.73;;;;;;;15.76;26.70;100549.91;5073998;28;20198;-59
2022/03/26 11:05:13;;;;;;;23.07;14.47;;;;;;;15.80;26.75;100551.66;5071294;28;20672;-59
2022/03/26 11:07:42;;;;;;;23.42;15.20;;;;;;;15.72;26.83;100535.16;5073139;28;20967;-60
2022/03/26 11:10:11;;;;;;;20.07;14.77;;;;;;;15.75;26.70;100542.97;5082623;28;20294;-60
2022/03/26 11:12:42;;;;;;;21.70;12.90;;;;;;;15.88;26.70;100538.78;5081806;28;20348;-60
2022/03/26 11:15:13;;;;;;;16.73;13.50;;;;;;;16.00;25.82;100532.88;5071911;28;20196;-60
2022/03/26 11:17:51;;;;;;;19.40;13.70;;;;;;;15.96;25.89;100521.59;5069499;28;20198;-59